Savannah — WDD9810 — position and weather

sailwx.info

Track history (hours):
 
Tides and Currents Weather Stations Pressure Air Temp Water Temp Dewpoint Dewpoint Depression Visibility Wind Speed Wind Dir Waves Ship Positions

Savannah

Owner: Crescent Towing & Salvage Co Inc, New Orleans, LA. More information available from US FCC via Universal Licensing System and Coast Guard Vessel Documentation Center.

Last reported at 2018-Feb-20 17:00 UTC. Time now 2018-Feb-20 17:24 UTC.
Position N 32°05' W 081°06'.

Length 28 m; draft 4.5 m.

Type: Tug. MMSI: 367316630.

Date/timePositionNaut miles runAvg speedWind from/ knotsBaromVisibWave heightAir tempDewpointWater temp
2018-Feb-20 17:00N 32°05' W 081°06'4 7.3
2018-Feb-20 16:30N 32°08' W 081°08'0 0.2
2018-Feb-20 15:51N 32°08' W 081°08'2 4.6
2018-Feb-20 15:30N 32°07' W 081°07'3 6.6
2018-Feb-20 15:00N 32°05' W 081°04'0 0.0
2018-Feb-20 14:24N 32°05' W 081°04'0 0.0
2018-Feb-20 14:00N 32°05' W 081°04'0 0.0
2018-Feb-20 13:13N 32°05' W 081°04'0 0.0
2018-Feb-20 13:01N 32°05' W 081°04'0 0.0
2018-Feb-20 12:24N 32°05' W 081°04'0 0.0
2018-Feb-20 11:49N 32°05' W 081°04'0 0.0
2018-Feb-20 11:30N 32°05' W 081°04'0 0.0
2018-Feb-20 11:00N 32°05' W 081°04'0 0.0
2018-Feb-20 10:30N 32°05' W 081°04'0 0.0
2018-Feb-20 10:00N 32°05' W 081°04'0 0.0
2018-Feb-20 09:30N 32°05' W 081°04'0 0.0
2018-Feb-20 09:01N 32°05' W 081°04'0 0.0
2018-Feb-20 08:30N 32°05' W 081°04'0 0.0
2018-Feb-20 07:54N 32°05' W 081°04'0 0.0
2018-Feb-20 07:30N 32°05' W 081°04'0 0.0
2018-Feb-20 07:00N 32°05' W 081°04'0 0.0
2018-Feb-20 06:31N 32°05' W 081°04'0 0.0
2018-Feb-20 06:00N 32°05' W 081°04'0 0.0
2018-Feb-20 05:24N 32°05' W 081°04'0 0.0
2018-Feb-20 05:00N 32°05' W 081°04'0 0.0
2018-Feb-20 04:30N 32°05' W 081°04'0 0.0
2018-Feb-20 04:00N 32°05' W 081°04'0 0.0
2018-Feb-20 03:30N 32°05' W 081°04'1 2.0
2018-Feb-20 03:00N 32°05' W 081°05'3 6.8
2018-Feb-20 02:30N 32°07' W 081°08'1 1.4
2018-Feb-20 01:57N 32°08' W 081°08'3 6.0
2018-Feb-20 01:30N 32°06' W 081°06'2 3.3
2018-Feb-20 00:53N 32°05' W 081°04'0 0.9
2018-Feb-20 00:28N 32°05' W 081°04'0 0.0
2018-Feb-19 23:58N 32°05' W 081°04'0 0.0
2018-Feb-19 23:28N 32°05' W 081°04'0 0.0
2018-Feb-19 22:58N 32°05' W 081°04'0 0.0
2018-Feb-19 22:28N 32°05' W 081°04'0 0.0
2018-Feb-19 21:46N 32°05' W 081°04'0 0.0
2018-Feb-19 21:22N 32°05' W 081°04'0 0.0
2018-Feb-19 20:58N 32°05' W 081°04'0 0.0
2018-Feb-19 20:28N 32°05' W 081°04'0 0.0
2018-Feb-19 19:58N 32°05' W 081°04'0 0.0
2018-Feb-19 19:28N 32°05' W 081°04'0 0.0
2018-Feb-19 18:58N 32°05' W 081°04'0 0.0
2018-Feb-19 18:28N 32°05' W 081°04'0 0.0
2018-Feb-19 17:58N 32°05' W 081°04'0 0.0
2018-Feb-19 17:28N 32°05' W 081°04'0 0.0
2018-Feb-19 16:58N 32°05' W 081°04'0 0.0
2018-Feb-19 16:28N 32°05' W 081°04'0 0.0
2018-Feb-19 15:58N 32°05' W 081°04'3 5.9
2018-Feb-19 15:30N 32°06' W 081°07'1 1.3
2018-Feb-19 14:59N 32°07' W 081°07'0 0.0
2018-Feb-19 14:17N 32°07' W 081°07'0 0.0
2018-Feb-19 13:53N 32°07' W 081°07'0 0.0
2018-Feb-19 13:29N 32°07' W 081°07'0 0.0
2018-Feb-19 12:53N 32°07' W 081°07'0 0.0
2018-Feb-19 12:17N 32°07' W 081°07'0 0.0
2018-Feb-19 11:59N 32°07' W 081°07'0 0.0
2018-Feb-19 11:29N 32°07' W 081°07'0 0.0
2018-Feb-19 10:59N 32°07' W 081°07'0 0.0
2018-Feb-19 10:30N 32°07' W 081°07'1 1.9
2018-Feb-19 10:00N 32°06' W 081°07'2 3.2
2018-Feb-19 09:30N 32°07' W 081°08'0 0.1
2018-Feb-19 08:57N 32°07' W 081°08'1 2.0
2018-Feb-19 08:30N 32°06' W 081°07'3 6.3
2018-Feb-19 08:00N 32°05' W 081°04'0 0.0
2018-Feb-19 07:30N 32°05' W 081°04'0 0.0
2018-Feb-19 07:00N 32°05' W 081°04'0 0.0
2018-Feb-19 06:29N 32°05' W 081°04'0 0.0
2018-Feb-19 05:59N 32°05' W 081°04'0 0.0
2018-Feb-19 05:29N 32°05' W 081°04'0 0.0
2018-Feb-19 04:59N 32°05' W 081°04'0 0.0
2018-Feb-19 04:29N 32°05' W 081°04'0 0.0
2018-Feb-19 03:53N 32°05' W 081°04'0 0.0
2018-Feb-19 03:29N 32°05' W 081°04'0 0.0
2018-Feb-19 02:59N 32°05' W 081°04'0 0.0
2018-Feb-19 02:30N 32°05' W 081°04'0 0.0
2018-Feb-19 01:59N 32°05' W 081°04'0 0.0
2018-Feb-19 01:23N 32°05' W 081°04'0 0.0
2018-Feb-19 00:59N 32°05' W 081°04'0 0.0
2018-Feb-19 00:29N 32°05' W 081°04'0 0.0
2018-Feb-18 23:59N 32°05' W 081°04'0 0.0
2018-Feb-18 23:29N 32°05' W 081°04'0 0.0
2018-Feb-18 22:59N 32°05' W 081°04'0 0.0
2018-Feb-18 22:30N 32°05' W 081°04'0 0.0
2018-Feb-18 21:59N 32°05' W 081°04'0 0.0
2018-Feb-18 21:29N 32°05' W 081°04'0 0.0
2018-Feb-18 20:59N 32°05' W 081°04'0 0.0
2018-Feb-18 20:29N 32°05' W 081°04'0 0.0
2018-Feb-18 20:00N 32°05' W 081°04'0 0.0
2018-Feb-18 19:23N 32°05' W 081°04'0 0.0
2018-Feb-18 19:00N 32°05' W 081°04'0 0.0
2018-Feb-18 18:29N 32°05' W 081°04'0 0.5
2018-Feb-18 17:57N 32°05' W 081°04'4 8.7
2018-Feb-18 17:30N 32°07' W 081°08'1 1.0
2018-Feb-18 17:00N 32°08' W 081°08'0 0.8
2018-Feb-18 16:30N 32°07' W 081°08'1 1.5
2018-Feb-18 15:57N 32°07' W 081°07'0 0.0
2018-Feb-18 15:27N 32°07' W 081°07'0 0.0
2018-Feb-18 14:57N 32°07' W 081°07'0 0.0
2018-Feb-18 14:27N 32°07' W 081°07'0 0.0
2018-Feb-18 13:57N 32°07' W 081°07'0 0.0
2018-Feb-18 13:27N 32°07' W 081°07'0 0.0
2018-Feb-18 12:55N 32°07' W 081°07'2 3.4
2018-Feb-18 12:25N 32°08' W 081°09'0 0.8
2018-Feb-18 12:00N 32°08' W 081°08'3 5.2
2018-Feb-18 11:30N 32°06' W 081°06'1 1.1
2018-Feb-18 10:53N 32°05' W 081°06'0 0.0
2018-Feb-18 10:29N 32°05' W 081°06'0 0.0
2018-Feb-18 09:53N 32°05' W 081°06'0 0.3
2018-Feb-18 09:28N 32°05' W 081°06'2 3.7
2018-Feb-18 09:00N 32°07' W 081°07'2 3.2
2018-Feb-18 08:30N 32°08' W 081°08'3 5.7
2018-Feb-18 08:00N 32°06' W 081°06'0 0.1
2018-Feb-18 07:26N 32°06' W 081°06'1 2.9
2018-Feb-18 07:00N 32°06' W 081°07'1 2.3
2018-Feb-18 06:25N 32°08' W 081°08'1 1.8
2018-Feb-18 06:00N 32°07' W 081°08'4 7.4
2018-Feb-18 05:30N 32°05' W 081°04'0 0.4
2018-Feb-18 04:57N 32°05' W 081°04'0 0.0
2018-Feb-18 04:27N 32°05' W 081°04'0 0.0
2018-Feb-18 03:45N 32°05' W 081°04'0 0.0
2018-Feb-18 03:27N 32°05' W 081°04'0 0.0
2018-Feb-18 02:57N 32°05' W 081°04'0 0.0
2018-Feb-18 02:27N 32°05' W 081°04'0 0.0
2018-Feb-18 01:57N 32°05' W 081°04'0 0.0
2018-Feb-18 01:27N 32°05' W 081°04'0 0.0
2018-Feb-18 00:57N 32°05' W 081°04'0 0.0
2018-Feb-18 00:27N 32°05' W 081°04'0 0.0
2018-Feb-17 23:57N 32°05' W 081°04'0 0.0
2018-Feb-17 23:27N 32°05' W 081°04'0 0.0
2018-Feb-17 23:00N 32°05' W 081°04'1 1.0
2018-Feb-17 22:30N 32°05' W 081°04'1 1.0
2018-Feb-17 21:59N 32°05' W 081°04'0 0.0
2018-Feb-17 21:29N 32°05' W 081°04'0 0.0
2018-Feb-17 20:59N 32°05' W 081°04'0 0.0
2018-Feb-17 20:29N 32°05' W 081°04'0 0.0
2018-Feb-17 19:59N 32°05' W 081°04'0 0.0
2018-Feb-17 19:29N 32°05' W 081°04'2 3.4
2018-Feb-17 19:00N 32°05' W 081°06'3 6.4
2018-Feb-17 18:29N 32°08' W 081°08'0 0.6
2018-Feb-17 18:00N 32°08' W 081°09'2 4.5
2018-Feb-17 17:30N 32°06' W 081°07'1 1.1
2018-Feb-17 16:55N 32°07' W 081°07'0 0.0
2018-Feb-17 16:29N 32°07' W 081°07'1 1.9
2018-Feb-17 15:55N 32°08' W 081°08'1 3.0
2018-Feb-17 15:30N 32°07' W 081°07'2 4.9
2018-Feb-17 15:00N 32°05' W 081°05'1 1.7
2018-Feb-17 14:26N 32°05' W 081°04'0 0.0
2018-Feb-17 13:56N 32°05' W 081°04'0 0.4
2018-Feb-17 13:30N 32°05' W 081°04'2 3.4
2018-Feb-17 13:00N 32°05' W 081°06'0 1.0
2018-Feb-17 12:30N 32°06' W 081°06'1 2.8
2018-Feb-17 12:01N 32°07' W 081°07'1 1.4
2018-Feb-17 11:19N 32°07' W 081°08'0 0.0
2018-Feb-17 10:58N 32°07' W 081°08'0 0.7
2018-Feb-17 10:28N 32°07' W 081°08'1 1.5
2018-Feb-17 10:00N 32°08' W 081°08'3 5.8
2018-Feb-17 09:30N 32°06' W 081°06'2 3.9
2018-Feb-17 08:59N 32°05' W 081°04'0 0.0
2018-Feb-17 08:23N 32°05' W 081°04'0 0.0
2018-Feb-17 07:59N 32°05' W 081°04'0 0.0
2018-Feb-17 07:29N 32°05' W 081°04'0 0.0
2018-Feb-17 06:59N 32°05' W 081°04'0 0.0
2018-Feb-17 06:29N 32°05' W 081°04'0 0.0
2018-Feb-17 05:59N 32°05' W 081°04'0 0.0
2018-Feb-17 05:29N 32°05' W 081°04'0 0.0
2018-Feb-17 04:53N 32°05' W 081°04'0 0.0
2018-Feb-17 04:29N 32°05' W 081°04'0 0.0
2018-Feb-17 03:59N 32°05' W 081°04'0 0.0
2018-Feb-17 03:29N 32°05' W 081°04'0 0.0
2018-Feb-17 02:59N 32°05' W 081°04'0 0.0
2018-Feb-17 02:23N 32°05' W 081°04'0 0.0
2018-Feb-17 01:53N 32°05' W 081°04'0 0.0
2018-Feb-17 01:29N 32°05' W 081°04'0 0.0
2018-Feb-17 00:59N 32°05' W 081°04'0 0.0
2018-Feb-17 00:23N 32°05' W 081°04'0 0.0
2018-Feb-16 23:53N 32°05' W 081°04'0 0.0
2018-Feb-16 23:29N 32°05' W 081°04'0 0.0
2018-Feb-16 22:59N 32°05' W 081°04'0 0.0
2018-Feb-16 22:29N 32°05' W 081°04'0 0.0
2018-Feb-16 21:59N 32°05' W 081°04'0 0.0
2018-Feb-16 21:29N 32°05' W 081°04'0 0.0
2018-Feb-16 20:59N 32°05' W 081°04'0 0.0
2018-Feb-16 20:29N 32°05' W 081°04'0 0.0
2018-Feb-16 19:59N 32°05' W 081°04'0 0.0
2018-Feb-16 19:29N 32°05' W 081°04'0 0.0
2018-Feb-16 18:59N 32°05' W 081°04'0 0.0
2018-Feb-16 18:29N 32°05' W 081°04'0 0.0
2018-Feb-16 18:00N 32°05' W 081°04'4 8.6
2018-Feb-16 17:30N 32°07' W 081°08'0 0.3
2018-Feb-16 16:55N 32°08' W 081°08'0 1.0
2018-Feb-16 16:30N 32°08' W 081°08'1 2.9
2018-Feb-16 16:01N 32°07' W 081°07'1 1.2
2018-Feb-16 15:30N 32°07' W 081°08'1 1.1
2018-Feb-16 15:00N 32°07' W 081°07'2 4.4
2018-Feb-16 14:30N 32°05' W 081°06'1 1.6
2018-Feb-16 14:00N 32°06' W 081°06'1 1.4
2018-Feb-16 13:08N 32°07' W 081°07'0 0.0
2018-Feb-16 12:50N 32°07' W 081°07'0 0.0
2018-Feb-16 12:29N 32°07' W 081°07'2 3.4
2018-Feb-16 12:00N 32°08' W 081°08'0 0.6
2018-Feb-16 11:25N 32°08' W 081°09'1 1.7
2018-Feb-16 10:59N 32°08' W 081°08'1 1.1
2018-Feb-16 10:30N 32°07' W 081°08'4 8.5
2018-Feb-16 10:00N 32°05' W 081°04'0 0.3
2018-Feb-16 09:26N 32°05' W 081°04'0 0.0
2018-Feb-16 08:56N 32°05' W 081°04'0 0.0
2018-Feb-16 08:26N 32°05' W 081°04'0 0.0
2018-Feb-16 07:56N 32°05' W 081°04'0 0.0
2018-Feb-16 07:26N 32°05' W 081°04'0 0.0
2018-Feb-16 06:56N 32°05' W 081°04'0 0.0
2018-Feb-16 06:26N 32°05' W 081°04'0 0.0
2018-Feb-16 05:50N 32°05' W 081°04'0 0.0
2018-Feb-16 05:26N 32°05' W 081°04'0 0.0
2018-Feb-16 04:50N 32°05' W 081°04'0 0.0
2018-Feb-16 04:26N 32°05' W 081°04'0 0.0
2018-Feb-16 03:56N 32°05' W 081°04'0 0.0
2018-Feb-16 03:26N 32°05' W 081°04'0 0.0
2018-Feb-16 02:56N 32°05' W 081°04'0 0.0
2018-Feb-16 02:20N 32°05' W 081°04'0 0.0
2018-Feb-16 01:56N 32°05' W 081°04'0 0.0
2018-Feb-16 01:26N 32°05' W 081°04'0 0.0
2018-Feb-16 00:56N 32°05' W 081°04'0 0.0
2018-Feb-16 00:26N 32°05' W 081°04'0 0.0
2018-Feb-15 23:56N 32°05' W 081°04'0 0.0
2018-Feb-15 23:20N 32°05' W 081°04'0 0.0
2018-Feb-15 22:56N 32°05' W 081°04'0 0.9
2018-Feb-15 22:30N 32°05' W 081°03'0 0.7
2018-Feb-15 21:55N 32°05' W 081°04'0 0.0
2018-Feb-15 21:25N 32°05' W 081°04'0 0.0
2018-Feb-15 20:55N 32°05' W 081°04'0 0.0
2018-Feb-15 20:25N 32°05' W 081°04'0 0.0
2018-Feb-15 19:55N 32°05' W 081°04'0 0.0
2018-Feb-15 19:25N 32°05' W 081°04'0 0.0
2018-Feb-15 18:55N 32°05' W 081°04'0 0.0
2018-Feb-15 18:25N 32°05' W 081°04'0 0.0
2018-Feb-15 17:55N 32°05' W 081°04'0 0.0
2018-Feb-15 17:19N 32°05' W 081°04'0 0.0
2018-Feb-15 16:55N 32°05' W 081°04'0 0.0
2018-Feb-15 16:25N 32°05' W 081°04'2 4.3
2018-Feb-15 16:00N 32°05' W 081°06'3 4.5
2018-Feb-15 15:15N 32°08' W 081°08'0 1.2
2018-Feb-15 15:00N 32°08' W 081°08'2 5.0
2018-Feb-15 14:30N 32°06' W 081°06'2 3.4
2018-Feb-15 13:55N 32°07' W 081°08'0 0.0
2018-Feb-15 13:25N 32°07' W 081°08'0 0.0
2018-Feb-15 12:49N 32°07' W 081°08'0 0.2
2018-Feb-15 12:30N 32°07' W 081°08'0 0.2
2018-Feb-15 11:59N 32°07' W 081°08'0 0.8
2018-Feb-15 11:30N 32°07' W 081°08'0 0.4
2018-Feb-15 11:00N 32°07' W 081°08'4 8.5
2018-Feb-15 10:30N 32°05' W 081°04'0 0.1
2018-Feb-15 09:49N 32°05' W 081°04'0 0.0
2018-Feb-15 09:25N 32°05' W 081°04'0 0.0
2018-Feb-15 08:55N 32°05' W 081°04'0 0.0
2018-Feb-15 08:19N 32°05' W 081°04'0 0.0
2018-Feb-15 07:55N 32°05' W 081°04'0 0.0
2018-Feb-15 07:25N 32°05' W 081°04'0 0.0
2018-Feb-15 06:55N 32°05' W 081°04'0 0.0
2018-Feb-15 06:19N 32°05' W 081°04'0 0.0
2018-Feb-15 05:55N 32°05' W 081°04'0 0.0
2018-Feb-15 05:25N 32°05' W 081°04'0 0.0
2018-Feb-15 04:55N 32°05' W 081°04'0 0.0
2018-Feb-15 04:19N 32°05' W 081°04'0 0.0
2018-Feb-15 03:49N 32°05' W 081°04'0 0.0
2018-Feb-15 03:25N 32°05' W 081°04'0 0.0
2018-Feb-15 02:55N 32°05' W 081°04'0 0.0
2018-Feb-15 02:25N 32°05' W 081°04'0 0.0
2018-Feb-15 01:55N 32°05' W 081°04'0 0.0
2018-Feb-15 01:19N 32°05' W 081°04'0 0.0
2018-Feb-15 00:49N 32°05' W 081°04'0 0.0
2018-Feb-15 00:25N 32°05' W 081°04'0 0.0
2018-Feb-14 23:55N 32°05' W 081°04'0 0.0
2018-Feb-14 23:25N 32°05' W 081°04'0 0.0
2018-Feb-14 22:55N 32°05' W 081°04'0 0.0
2018-Feb-14 22:25N 32°05' W 081°04'0 0.0
2018-Feb-14 21:55N 32°05' W 081°04'0 0.0
2018-Feb-14 21:25N 32°05' W 081°04'0 0.0
2018-Feb-14 20:55N 32°05' W 081°04'0 0.0
2018-Feb-14 20:25N 32°05' W 081°04'0 0.0
2018-Feb-14 19:55N 32°05' W 081°04'0 0.0
2018-Feb-14 19:25N 32°05' W 081°04'0 0.0
2018-Feb-14 18:55N 32°05' W 081°04'0 0.0
2018-Feb-14 18:19N 32°05' W 081°04'0 0.0
2018-Feb-14 17:55N 32°05' W 081°04'0 0.0
2018-Feb-14 17:25N 32°05' W 081°04'0 0.0
2018-Feb-14 16:55N 32°05' W 081°04'2 4.1
2018-Feb-14 16:30N 32°05' W 081°06'3 4.8
2018-Feb-14 15:58N 32°07' W 081°08'1 1.4
2018-Feb-14 15:30N 32°08' W 081°08'1 1.5
2018-Feb-14 15:01N 32°07' W 081°08'3 5.1
2018-Feb-14 14:30N 32°05' W 081°06'2 3.3
2018-Feb-14 14:00N 32°05' W 081°04'0 0.0
2018-Feb-14 13:30N 32°05' W 081°04'0 0.0
2018-Feb-14 13:00N 32°05' W 081°04'0 0.0
2018-Feb-14 12:30N 32°05' W 081°04'0 0.0
2018-Feb-14 12:00N 32°05' W 081°04'0 0.0
2018-Feb-14 11:30N 32°05' W 081°04'0 0.0
2018-Feb-14 11:00N 32°05' W 081°04'0 0.0
2018-Feb-14 10:30N 32°05' W 081°04'0 0.0
2018-Feb-14 10:00N 32°05' W 081°04'0 0.0
2018-Feb-14 09:30N 32°05' W 081°04'0 0.0
2018-Feb-14 09:00N 32°05' W 081°04'0 0.0
2018-Feb-14 08:30N 32°05' W 081°04'0 0.0
2018-Feb-14 08:00N 32°05' W 081°04'0 0.0
2018-Feb-14 07:30N 32°05' W 081°04'4 7.1
2018-Feb-14 07:00N 32°07' W 081°08'0 0.7
2018-Feb-14 06:30N 32°07' W 081°08'0 0.9
2018-Feb-14 06:00N 32°07' W 081°07'2 3.1
2018-Feb-14 05:29N 32°05' W 081°06'0 0.0
2018-Feb-14 04:59N 32°05' W 081°06'0 0.0
2018-Feb-14 04:29N 32°05' W 081°06'0 0.0
2018-Feb-14 03:59N 32°05' W 081°06'2 3.8
2018-Feb-14 03:27N 32°07' W 081°08'0 0.2
2018-Feb-14 03:00N 32°07' W 081°08'0 0.8
2018-Feb-14 02:28N 32°08' W 081°08'0 0.0
2018-Feb-14 01:59N 32°08' W 081°08'0 0.7
2018-Feb-14 01:30N 32°08' W 081°08'2 4.9
2018-Feb-14 01:00N 32°06' W 081°07'2 4.7
2018-Feb-14 00:30N 32°05' W 081°04'0 0.3
2018-Feb-14 00:00N 32°05' W 081°04'0 0.0
2018-Feb-13 23:30N 32°05' W 081°04'0 0.0
2018-Feb-13 23:00N 32°05' W 081°04'1 1.5
2018-Feb-13 22:30N 32°05' W 081°05'1 2.3
2018-Feb-13 21:59N 32°05' W 081°06'2 2.5
2018-Feb-13 21:19N 32°07' W 081°07'1 3.5
2018-Feb-13 21:00N 32°06' W 081°06'1 1.3
2018-Feb-13 20:31N 32°06' W 081°07'0 0.3
2018-Feb-13 20:00N 32°06' W 081°07'0 0.5
2018-Feb-13 19:30N 32°06' W 081°07'3 4.6
2018-Feb-13 18:56N 32°05' W 081°04'0 0.0
2018-Feb-13 18:21N 32°05' W 081°04'0 0.0
2018-Feb-13 17:57N 32°05' W 081°04'0 0.0
2018-Feb-13 17:27N 32°05' W 081°04'0 0.0
2018-Feb-13 16:57N 32°05' W 081°04'0 0.0
2018-Feb-13 16:27N 32°05' W 081°04'0 0.0
2018-Feb-13 15:50N 32°05' W 081°04'0 0.0
2018-Feb-13 15:26N 32°05' W 081°04'0 0.0
2018-Feb-13 14:56N 32°05' W 081°04'0 0.0
2018-Feb-13 14:26N 32°05' W 081°04'0 0.0
2018-Feb-13 13:56N 32°05' W 081°04'0 0.0
2018-Feb-13 13:27N 32°05' W 081°04'0 0.0
2018-Feb-13 12:56N 32°05' W 081°04'0 0.0
2018-Feb-13 12:27N 32°05' W 081°04'0 0.0
2018-Feb-13 11:57N 32°05' W 081°04'0 0.0
2018-Feb-13 11:26N 32°05' W 081°04'0 0.0
2018-Feb-13 10:56N 32°05' W 081°04'0 0.0
2018-Feb-13 10:26N 32°05' W 081°04'0 0.0
2018-Feb-13 09:56N 32°05' W 081°04'0 0.0
2018-Feb-13 09:26N 32°05' W 081°04'0 0.0
2018-Feb-13 08:57N 32°05' W 081°04'0 0.0
2018-Feb-13 08:26N 32°05' W 081°04'0 0.3
2018-Feb-13 08:01N 32°05' W 081°04'4 8.2
2018-Feb-13 07:31N 32°07' W 081°08'2 4.0
2018-Feb-13 06:57N 32°05' W 081°06'0 0.0
2018-Feb-13 06:27N 32°05' W 081°06'0 0.0
2018-Feb-13 05:57N 32°05' W 081°06'0 0.0
2018-Feb-13 05:27N 32°05' W 081°06'2 4.5
2018-Feb-13 04:58N 32°07' W 081°08'0 0.0
2018-Feb-13 04:27N 32°07' W 081°08'1 1.6
2018-Feb-13 04:01N 32°08' W 081°08'3 5.3
2018-Feb-13 03:31N 32°06' W 081°06'2 4.1
2018-Feb-13 02:59N 32°05' W 081°04'0 0.0
2018-Feb-13 02:29N 32°05' W 081°04'0 0.0
2018-Feb-13 01:59N 32°05' W 081°04'0 0.0
2018-Feb-13 01:29N 32°05' W 081°04'0 0.0
2018-Feb-13 00:59N 32°05' W 081°04'0 0.0
2018-Feb-13 00:29N 32°05' W 081°04'0 0.0
2018-Feb-12 23:59N 32°05' W 081°04'0 0.0
2018-Feb-12 23:29N 32°05' W 081°04'0 0.0
2018-Feb-12 22:53N 32°05' W 081°04'0 0.0
2018-Feb-12 22:29N 32°05' W 081°04'0 0.0
2018-Feb-12 21:59N 32°05' W 081°04'0 0.0
2018-Feb-12 21:29N 32°05' W 081°04'0 0.0
2018-Feb-12 20:59N 32°05' W 081°04'2 4.4
2018-Feb-12 20:30N 32°06' W 081°06'0 0.5
2018-Feb-12 19:58N 32°06' W 081°07'0 0.0
2018-Feb-12 19:28N 32°06' W 081°07'0 0.0
2018-Feb-12 18:58N 32°06' W 081°07'0 0.0
2018-Feb-12 18:28N 32°06' W 081°07'0 0.0
2018-Feb-12 17:58N 32°06' W 081°07'1 2.9
2018-Feb-12 17:30N 32°05' W 081°05'1 1.8
2018-Feb-12 16:51N 32°05' W 081°04'0 0.0
2018-Feb-12 16:21N 32°05' W 081°04'0 0.0
2018-Feb-12 15:57N 32°05' W 081°04'0 0.7
2018-Feb-12 15:18N 32°05' W 081°04'3 9.3
2018-Feb-12 15:00N 32°06' W 081°07'2 4.0
2018-Feb-12 14:28N 32°08' W 081°09'0 0.2
2018-Feb-12 13:55N 32°08' W 081°08'1 3.4
2018-Feb-12 13:30N 32°07' W 081°07'2 3.1
2018-Feb-12 12:58N 32°05' W 081°06'0 0.9
2018-Feb-12 12:30N 32°05' W 081°06'2 2.5
2018-Feb-12 11:54N 32°05' W 081°04'1 1.7
2018-Feb-12 11:30N 32°05' W 081°03'1 1.4
2018-Feb-12 11:00N 32°05' W 081°03'1 2.6
2018-Feb-12 10:30N 32°05' W 081°04'4 7.7
2018-Feb-12 10:01N 32°07' W 081°08'1 1.4
2018-Feb-12 09:30N 32°08' W 081°08'0 0.1
2018-Feb-12 09:01N 32°07' W 081°08'3 5.6
2018-Feb-12 08:31N 32°05' W 081°06'2 3.2
2018-Feb-12 07:57N 32°05' W 081°04'0 0.0
2018-Feb-12 07:27N 32°05' W 081°04'0 0.0
2018-Feb-12 06:51N 32°05' W 081°04'0 0.0
2018-Feb-12 06:27N 32°05' W 081°04'0 0.0
2018-Feb-12 05:57N 32°05' W 081°04'0 0.0
2018-Feb-12 05:27N 32°05' W 081°04'0 0.0
2018-Feb-12 04:57N 32°05' W 081°04'0 0.0
2018-Feb-12 04:27N 32°05' W 081°04'0 0.0
2018-Feb-12 03:51N 32°05' W 081°04'0 1.2
2018-Feb-12 03:30N 32°05' W 081°04'4 8.7
2018-Feb-12 03:01N 32°08' W 081°08'0 0.8
2018-Feb-12 02:29N 32°08' W 081°09'0 0.2
2018-Feb-12 02:00N 32°08' W 081°08'2 3.1
2018-Feb-12 01:30N 32°07' W 081°07'3 7.0
2018-Feb-12 01:00N 32°05' W 081°04'0 0.0
2018-Feb-11 00:08N 32°05' W 081°04'0 0.0
2018-Feb-11 00:00N 32°05' W 081°04'0 0.0
2018-Feb-10 23:27N 32°05' W 081°04'0 0.0
2018-Feb-10 22:57N 32°05' W 081°04'0 0.0
2018-Feb-10 22:27N 32°05' W 081°04'0 0.0
2018-Feb-10 21:45N 32°05' W 081°04'0 0.0
2018-Feb-10 21:27N 32°05' W 081°04'0 0.0
2018-Feb-10 20:57N 32°05' W 081°04'0 0.0
2018-Feb-10 20:27N 32°05' W 081°04'0 0.0
2018-Feb-10 19:51N 32°05' W 081°04'2 5.2
2018-Feb-10 19:30N 32°05' W 081°06'3 4.6
2018-Feb-10 18:56N 32°07' W 081°08'0 0.0
2018-Feb-10 18:26N 32°07' W 081°08'0 0.5
2018-Feb-10 18:00N 32°08' W 081°08'0 0.1
2018-Feb-10 17:25N 32°07' W 081°08'0 0.0
2018-Feb-10 17:00N 32°07' W 081°08'  
Track history (hours):
 
Tides and Currents Weather Stations Pressure Air Temp Water Temp Dewpoint Dewpoint Depression Visibility Wind Speed Wind Dir Waves Ship Positions

Savannah

Owner: Crescent Towing & Salvage Co Inc, New Orleans, LA. More information available from US FCC via Universal Licensing System and Coast Guard Vessel Documentation Center.

Last reported at 2018-Feb-20 17:00 UTC. Time now 2018-Feb-20 17:24 UTC.
Position N 32°05' W 081°06'.

Length 28 m; draft 4.5 m.

Type: Tug. MMSI: 367316630.

Date/timePositionNaut miles runAvg speedWind from/ knotsBaromVisibWave heightAir tempDewpointWater temp
2018-Feb-20 17:00N 32°05' W 081°06'4 7.3
2018-Feb-20 16:30N 32°08' W 081°08'0 0.2
2018-Feb-20 15:51N 32°08' W 081°08'2 4.6
2018-Feb-20 15:30N 32°07' W 081°07'3 6.6
2018-Feb-20 15:00N 32°05' W 081°04'0 0.0
2018-Feb-20 14:24N 32°05' W 081°04'0 0.0
2018-Feb-20 14:00N 32°05' W 081°04'0 0.0
2018-Feb-20 13:13N 32°05' W 081°04'0 0.0
2018-Feb-20 13:01N 32°05' W 081°04'0 0.0
2018-Feb-20 12:24N 32°05' W 081°04'0 0.0
2018-Feb-20 11:49N 32°05' W 081°04'0 0.0
2018-Feb-20 11:30N 32°05' W 081°04'0 0.0
2018-Feb-20 11:00N 32°05' W 081°04'0 0.0
2018-Feb-20 10:30N 32°05' W 081°04'0 0.0
2018-Feb-20 10:00N 32°05' W 081°04'0 0.0
2018-Feb-20 09:30N 32°05' W 081°04'0 0.0
2018-Feb-20 09:01N 32°05' W 081°04'0 0.0
2018-Feb-20 08:30N 32°05' W 081°04'0 0.0
2018-Feb-20 07:54N 32°05' W 081°04'0 0.0
2018-Feb-20 07:30N 32°05' W 081°04'0 0.0
2018-Feb-20 07:00N 32°05' W 081°04'0 0.0
2018-Feb-20 06:31N 32°05' W 081°04'0 0.0
2018-Feb-20 06:00N 32°05' W 081°04'0 0.0
2018-Feb-20 05:24N 32°05' W 081°04'0 0.0
2018-Feb-20 05:00N 32°05' W 081°04'0 0.0
2018-Feb-20 04:30N 32°05' W 081°04'0 0.0
2018-Feb-20 04:00N 32°05' W 081°04'0 0.0
2018-Feb-20 03:30N 32°05' W 081°04'1 2.0
2018-Feb-20 03:00N 32°05' W 081°05'3 6.8
2018-Feb-20 02:30N 32°07' W 081°08'1 1.4
2018-Feb-20 01:57N 32°08' W 081°08'3 6.0
2018-Feb-20 01:30N 32°06' W 081°06'2 3.3
2018-Feb-20 00:53N 32°05' W 081°04'0 0.9
2018-Feb-20 00:28N 32°05' W 081°04'0 0.0
2018-Feb-19 23:58N 32°05' W 081°04'0 0.0
2018-Feb-19 23:28N 32°05' W 081°04'0 0.0
2018-Feb-19 22:58N 32°05' W 081°04'0 0.0
2018-Feb-19 22:28N 32°05' W 081°04'0 0.0
2018-Feb-19 21:46N 32°05' W 081°04'0 0.0
2018-Feb-19 21:22N 32°05' W 081°04'0 0.0
2018-Feb-19 20:58N 32°05' W 081°04'0 0.0
2018-Feb-19 20:28N 32°05' W 081°04'0 0.0
2018-Feb-19 19:58N 32°05' W 081°04'0 0.0
2018-Feb-19 19:28N 32°05' W 081°04'0 0.0
2018-Feb-19 18:58N 32°05' W 081°04'0 0.0
2018-Feb-19 18:28N 32°05' W 081°04'0 0.0
2018-Feb-19 17:58N 32°05' W 081°04'0 0.0
2018-Feb-19 17:28N 32°05' W 081°04'0 0.0
2018-Feb-19 16:58N 32°05' W 081°04'0 0.0
2018-Feb-19 16:28N 32°05' W 081°04'0 0.0
2018-Feb-19 15:58N 32°05' W 081°04'3 5.9
2018-Feb-19 15:30N 32°06' W 081°07'1 1.3
2018-Feb-19 14:59N 32°07' W 081°07'0 0.0
2018-Feb-19 14:17N 32°07' W 081°07'0 0.0
2018-Feb-19 13:53N 32°07' W 081°07'0 0.0
2018-Feb-19 13:29N 32°07' W 081°07'0 0.0
2018-Feb-19 12:53N 32°07' W 081°07'0 0.0
2018-Feb-19 12:17N 32°07' W 081°07'0 0.0
2018-Feb-19 11:59N 32°07' W 081°07'0 0.0
2018-Feb-19 11:29N 32°07' W 081°07'0 0.0
2018-Feb-19 10:59N 32°07' W 081°07'0 0.0
2018-Feb-19 10:30N 32°07' W 081°07'1 1.9
2018-Feb-19 10:00N 32°06' W 081°07'2 3.2
2018-Feb-19 09:30N 32°07' W 081°08'0 0.1
2018-Feb-19 08:57N 32°07' W 081°08'1 2.0
2018-Feb-19 08:30N 32°06' W 081°07'3 6.3
2018-Feb-19 08:00N 32°05' W 081°04'0 0.0
2018-Feb-19 07:30N 32°05' W 081°04'0 0.0
2018-Feb-19 07:00N 32°05' W 081°04'0 0.0
2018-Feb-19 06:29N 32°05' W 081°04'0 0.0
2018-Feb-19 05:59N 32°05' W 081°04'0 0.0
2018-Feb-19 05:29N 32°05' W 081°04'0 0.0
2018-Feb-19 04:59N 32°05' W 081°04'0 0.0
2018-Feb-19 04:29N 32°05' W 081°04'0 0.0
2018-Feb-19 03:53N 32°05' W 081°04'0 0.0
2018-Feb-19 03:29N 32°05' W 081°04'0 0.0
2018-Feb-19 02:59N 32°05' W 081°04'0 0.0
2018-Feb-19 02:30N 32°05' W 081°04'0 0.0
2018-Feb-19 01:59N 32°05' W 081°04'0 0.0
2018-Feb-19 01:23N 32°05' W 081°04'0 0.0
2018-Feb-19 00:59N 32°05' W 081°04'0 0.0
2018-Feb-19 00:29N 32°05' W 081°04'0 0.0
2018-Feb-18 23:59N 32°05' W 081°04'0 0.0
2018-Feb-18 23:29N 32°05' W 081°04'0 0.0
2018-Feb-18 22:59N 32°05' W 081°04'0 0.0
2018-Feb-18 22:30N 32°05' W 081°04'0 0.0
2018-Feb-18 21:59N 32°05' W 081°04'0 0.0
2018-Feb-18 21:29N 32°05' W 081°04'0 0.0
2018-Feb-18 20:59N 32°05' W 081°04'0 0.0
2018-Feb-18 20:29N 32°05' W 081°04'0 0.0
2018-Feb-18 20:00N 32°05' W 081°04'0 0.0
2018-Feb-18 19:23N 32°05' W 081°04'0 0.0
2018-Feb-18 19:00N 32°05' W 081°04'0 0.0
2018-Feb-18 18:29N 32°05' W 081°04'0 0.5
2018-Feb-18 17:57N 32°05' W 081°04'4 8.7
2018-Feb-18 17:30N 32°07' W 081°08'1 1.0
2018-Feb-18 17:00N 32°08' W 081°08'0 0.8
2018-Feb-18 16:30N 32°07' W 081°08'1 1.5
2018-Feb-18 15:57N 32°07' W 081°07'0 0.0
2018-Feb-18 15:27N 32°07' W 081°07'0 0.0
2018-Feb-18 14:57N 32°07' W 081°07'0 0.0
2018-Feb-18 14:27N 32°07' W 081°07'0 0.0
2018-Feb-18 13:57N 32°07' W 081°07'0 0.0
2018-Feb-18 13:27N 32°07' W 081°07'0 0.0
2018-Feb-18 12:55N 32°07' W 081°07'2 3.4
2018-Feb-18 12:25N 32°08' W 081°09'0 0.8
2018-Feb-18 12:00N 32°08' W 081°08'3 5.2
2018-Feb-18 11:30N 32°06' W 081°06'1 1.1
2018-Feb-18 10:53N 32°05' W 081°06'0 0.0
2018-Feb-18 10:29N 32°05' W 081°06'0 0.0
2018-Feb-18 09:53N 32°05' W 081°06'0 0.3
2018-Feb-18 09:28N 32°05' W 081°06'2 3.7
2018-Feb-18 09:00N 32°07' W 081°07'2 3.2
2018-Feb-18 08:30N 32°08' W 081°08'3 5.7
2018-Feb-18 08:00N 32°06' W 081°06'0 0.1
2018-Feb-18 07:26N 32°06' W 081°06'1 2.9
2018-Feb-18 07:00N 32°06' W 081°07'1 2.3
2018-Feb-18 06:25N 32°08' W 081°08'1 1.8
2018-Feb-18 06:00N 32°07' W 081°08'4 7.4
2018-Feb-18 05:30N 32°05' W 081°04'0 0.4
2018-Feb-18 04:57N 32°05' W 081°04'0 0.0
2018-Feb-18 04:27N 32°05' W 081°04'0 0.0
2018-Feb-18 03:45N 32°05' W 081°04'0 0.0
2018-Feb-18 03:27N 32°05' W 081°04'0 0.0
2018-Feb-18 02:57N 32°05' W 081°04'0 0.0
2018-Feb-18 02:27N 32°05' W 081°04'0 0.0
2018-Feb-18 01:57N 32°05' W 081°04'0 0.0
2018-Feb-18 01:27N 32°05' W 081°04'0 0.0
2018-Feb-18 00:57N 32°05' W 081°04'0 0.0
2018-Feb-18 00:27N 32°05' W 081°04'0 0.0
2018-Feb-17 23:57N 32°05' W 081°04'0 0.0
2018-Feb-17 23:27N 32°05' W 081°04'0 0.0
2018-Feb-17 23:00N 32°05' W 081°04'1 1.0
2018-Feb-17 22:30N 32°05' W 081°04'1 1.0
2018-Feb-17 21:59N 32°05' W 081°04'0 0.0
2018-Feb-17 21:29N 32°05' W 081°04'0 0.0
2018-Feb-17 20:59N 32°05' W 081°04'0 0.0
2018-Feb-17 20:29N 32°05' W 081°04'0 0.0
2018-Feb-17 19:59N 32°05' W 081°04'0 0.0
2018-Feb-17 19:29N 32°05' W 081°04'2 3.4
2018-Feb-17 19:00N 32°05' W 081°06'3 6.4
2018-Feb-17 18:29N 32°08' W 081°08'0 0.6
2018-Feb-17 18:00N 32°08' W 081°09'2 4.5
2018-Feb-17 17:30N 32°06' W 081°07'1 1.1
2018-Feb-17 16:55N 32°07' W 081°07'0 0.0
2018-Feb-17 16:29N 32°07' W 081°07'1 1.9
2018-Feb-17 15:55N 32°08' W 081°08'1 3.0
2018-Feb-17 15:30N 32°07' W 081°07'2 4.9
2018-Feb-17 15:00N 32°05' W 081°05'1 1.7
2018-Feb-17 14:26N 32°05' W 081°04'0 0.0
2018-Feb-17 13:56N 32°05' W 081°04'0 0.4
2018-Feb-17 13:30N 32°05' W 081°04'2 3.4
2018-Feb-17 13:00N 32°05' W 081°06'0 1.0
2018-Feb-17 12:30N 32°06' W 081°06'1 2.8
2018-Feb-17 12:01N 32°07' W 081°07'1 1.4
2018-Feb-17 11:19N 32°07' W 081°08'0 0.0
2018-Feb-17 10:58N 32°07' W 081°08'0 0.7
2018-Feb-17 10:28N 32°07' W 081°08'1 1.5
2018-Feb-17 10:00N 32°08' W 081°08'3 5.8
2018-Feb-17 09:30N 32°06' W 081°06'2 3.9
2018-Feb-17 08:59N 32°05' W 081°04'0 0.0
2018-Feb-17 08:23N 32°05' W 081°04'0 0.0
2018-Feb-17 07:59N 32°05' W 081°04'0 0.0
2018-Feb-17 07:29N 32°05' W 081°04'0 0.0
2018-Feb-17 06:59N 32°05' W 081°04'0 0.0
2018-Feb-17 06:29N 32°05' W 081°04'0 0.0
2018-Feb-17 05:59N 32°05' W 081°04'0 0.0
2018-Feb-17 05:29N 32°05' W 081°04'0 0.0
2018-Feb-17 04:53N 32°05' W 081°04'0 0.0
2018-Feb-17 04:29N 32°05' W 081°04'0 0.0
2018-Feb-17 03:59N 32°05' W 081°04'0 0.0
2018-Feb-17 03:29N 32°05' W 081°04'0 0.0
2018-Feb-17 02:59N 32°05' W 081°04'0 0.0
2018-Feb-17 02:23N 32°05' W 081°04'0 0.0
2018-Feb-17 01:53N 32°05' W 081°04'0 0.0
2018-Feb-17 01:29N 32°05' W 081°04'0 0.0
2018-Feb-17 00:59N 32°05' W 081°04'0 0.0
2018-Feb-17 00:23N 32°05' W 081°04'0 0.0
2018-Feb-16 23:53N 32°05' W 081°04'0 0.0
2018-Feb-16 23:29N 32°05' W 081°04'0 0.0
2018-Feb-16 22:59N 32°05' W 081°04'0 0.0
2018-Feb-16 22:29N 32°05' W 081°04'0 0.0
2018-Feb-16 21:59N 32°05' W 081°04'0 0.0
2018-Feb-16 21:29N 32°05' W 081°04'0 0.0
2018-Feb-16 20:59N 32°05' W 081°04'0 0.0
2018-Feb-16 20:29N 32°05' W 081°04'0 0.0
2018-Feb-16 19:59N 32°05' W 081°04'0 0.0
2018-Feb-16 19:29N 32°05' W 081°04'0 0.0
2018-Feb-16 18:59N 32°05' W 081°04'0 0.0
2018-Feb-16 18:29N 32°05' W 081°04'0 0.0
2018-Feb-16 18:00N 32°05' W 081°04'4 8.6
2018-Feb-16 17:30N 32°07' W 081°08'0 0.3
2018-Feb-16 16:55N 32°08' W 081°08'0 1.0
2018-Feb-16 16:30N 32°08' W 081°08'1 2.9
2018-Feb-16 16:01N 32°07' W 081°07'1 1.2
2018-Feb-16 15:30N 32°07' W 081°08'1 1.1
2018-Feb-16 15:00N 32°07' W 081°07'2 4.4
2018-Feb-16 14:30N 32°05' W 081°06'1 1.6
2018-Feb-16 14:00N 32°06' W 081°06'1 1.4
2018-Feb-16 13:08N 32°07' W 081°07'0 0.0
2018-Feb-16 12:50N 32°07' W 081°07'0 0.0
2018-Feb-16 12:29N 32°07' W 081°07'2 3.4
2018-Feb-16 12:00N 32°08' W 081°08'0 0.6
2018-Feb-16 11:25N 32°08' W 081°09'1 1.7
2018-Feb-16 10:59N 32°08' W 081°08'1 1.1
2018-Feb-16 10:30N 32°07' W 081°08'4 8.5
2018-Feb-16 10:00N 32°05' W 081°04'0 0.3
2018-Feb-16 09:26N 32°05' W 081°04'0 0.0
2018-Feb-16 08:56N 32°05' W 081°04'0 0.0
2018-Feb-16 08:26N 32°05' W 081°04'0 0.0
2018-Feb-16 07:56N 32°05' W 081°04'0 0.0
2018-Feb-16 07:26N 32°05' W 081°04'0 0.0
2018-Feb-16 06:56N 32°05' W 081°04'0 0.0
2018-Feb-16 06:26N 32°05' W 081°04'0 0.0
2018-Feb-16 05:50N 32°05' W 081°04'0 0.0
2018-Feb-16 05:26N 32°05' W 081°04'0 0.0
2018-Feb-16 04:50N 32°05' W 081°04'0 0.0
2018-Feb-16 04:26N 32°05' W 081°04'0 0.0
2018-Feb-16 03:56N 32°05' W 081°04'0 0.0
2018-Feb-16 03:26N 32°05' W 081°04'0 0.0
2018-Feb-16 02:56N 32°05' W 081°04'0 0.0
2018-Feb-16 02:20N 32°05' W 081°04'0 0.0
2018-Feb-16 01:56N 32°05' W 081°04'0 0.0
2018-Feb-16 01:26N 32°05' W 081°04'0 0.0
2018-Feb-16 00:56N 32°05' W 081°04'0 0.0
2018-Feb-16 00:26N 32°05' W 081°04'0 0.0
2018-Feb-15 23:56N 32°05' W 081°04'0 0.0
2018-Feb-15 23:20N 32°05' W 081°04'0 0.0
2018-Feb-15 22:56N 32°05' W 081°04'0 0.9
2018-Feb-15 22:30N 32°05' W 081°03'0 0.7
2018-Feb-15 21:55N 32°05' W 081°04'0 0.0
2018-Feb-15 21:25N 32°05' W 081°04'0 0.0
2018-Feb-15 20:55N 32°05' W 081°04'0 0.0
2018-Feb-15 20:25N 32°05' W 081°04'0 0.0
2018-Feb-15 19:55N 32°05' W 081°04'0 0.0
2018-Feb-15 19:25N 32°05' W 081°04'0 0.0
2018-Feb-15 18:55N 32°05' W 081°04'0 0.0
2018-Feb-15 18:25N 32°05' W 081°04'0 0.0
2018-Feb-15 17:55N 32°05' W 081°04'0 0.0
2018-Feb-15 17:19N 32°05' W 081°04'0 0.0
2018-Feb-15 16:55N 32°05' W 081°04'0 0.0
2018-Feb-15 16:25N 32°05' W 081°04'2 4.3
2018-Feb-15 16:00N 32°05' W 081°06'3 4.5
2018-Feb-15 15:15N 32°08' W 081°08'0 1.2
2018-Feb-15 15:00N 32°08' W 081°08'2 5.0
2018-Feb-15 14:30N 32°06' W 081°06'2 3.4
2018-Feb-15 13:55N 32°07' W 081°08'0 0.0
2018-Feb-15 13:25N 32°07' W 081°08'0 0.0
2018-Feb-15 12:49N 32°07' W 081°08'0 0.2
2018-Feb-15 12:30N 32°07' W 081°08'0 0.2
2018-Feb-15 11:59N 32°07' W 081°08'0 0.8
2018-Feb-15 11:30N 32°07' W 081°08'0 0.4
2018-Feb-15 11:00N 32°07' W 081°08'4 8.5
2018-Feb-15 10:30N 32°05' W 081°04'0 0.1
2018-Feb-15 09:49N 32°05' W 081°04'0 0.0
2018-Feb-15 09:25N 32°05' W 081°04'0 0.0
2018-Feb-15 08:55N 32°05' W 081°04'0 0.0
2018-Feb-15 08:19N 32°05' W 081°04'0 0.0
2018-Feb-15 07:55N 32°05' W 081°04'0 0.0
2018-Feb-15 07:25N 32°05' W 081°04'0 0.0
2018-Feb-15 06:55N 32°05' W 081°04'0 0.0
2018-Feb-15 06:19N 32°05' W 081°04'0 0.0
2018-Feb-15 05:55N 32°05' W 081°04'0 0.0
2018-Feb-15 05:25N 32°05' W 081°04'0 0.0
2018-Feb-15 04:55N 32°05' W 081°04'0 0.0
2018-Feb-15 04:19N 32°05' W 081°04'0 0.0
2018-Feb-15 03:49N 32°05' W 081°04'0 0.0
2018-Feb-15 03:25N 32°05' W 081°04'0 0.0
2018-Feb-15 02:55N 32°05' W 081°04'0 0.0
2018-Feb-15 02:25N 32°05' W 081°04'0 0.0
2018-Feb-15 01:55N 32°05' W 081°04'0 0.0
2018-Feb-15 01:19N 32°05' W 081°04'0 0.0
2018-Feb-15 00:49N 32°05' W 081°04'0 0.0
2018-Feb-15 00:25N 32°05' W 081°04'0 0.0
2018-Feb-14 23:55N 32°05' W 081°04'0 0.0
2018-Feb-14 23:25N 32°05' W 081°04'0 0.0
2018-Feb-14 22:55N 32°05' W 081°04'0 0.0
2018-Feb-14 22:25N 32°05' W 081°04'0 0.0
2018-Feb-14 21:55N 32°05' W 081°04'0 0.0
2018-Feb-14 21:25N 32°05' W 081°04'0 0.0
2018-Feb-14 20:55N 32°05' W 081°04'0 0.0
2018-Feb-14 20:25N 32°05' W 081°04'0 0.0
2018-Feb-14 19:55N 32°05' W 081°04'0 0.0
2018-Feb-14 19:25N 32°05' W 081°04'0 0.0
2018-Feb-14 18:55N 32°05' W 081°04'0 0.0
2018-Feb-14 18:19N 32°05' W 081°04'0 0.0
2018-Feb-14 17:55N 32°05' W 081°04'0 0.0
2018-Feb-14 17:25N 32°05' W 081°04'0 0.0
2018-Feb-14 16:55N 32°05' W 081°04'2 4.1
2018-Feb-14 16:30N 32°05' W 081°06'3 4.8
2018-Feb-14 15:58N 32°07' W 081°08'1 1.4
2018-Feb-14 15:30N 32°08' W 081°08'1 1.5
2018-Feb-14 15:01N 32°07' W 081°08'3 5.1
2018-Feb-14 14:30N 32°05' W 081°06'2 3.3
2018-Feb-14 14:00N 32°05' W 081°04'0 0.0
2018-Feb-14 13:30N 32°05' W 081°04'0 0.0
2018-Feb-14 13:00N 32°05' W 081°04'0 0.0
2018-Feb-14 12:30N 32°05' W 081°04'0 0.0
2018-Feb-14 12:00N 32°05' W 081°04'0 0.0
2018-Feb-14 11:30N 32°05' W 081°04'0 0.0
2018-Feb-14 11:00N 32°05' W 081°04'0 0.0
2018-Feb-14 10:30N 32°05' W 081°04'0 0.0
2018-Feb-14 10:00N 32°05' W 081°04'0 0.0
2018-Feb-14 09:30N 32°05' W 081°04'0 0.0
2018-Feb-14 09:00N 32°05' W 081°04'0 0.0
2018-Feb-14 08:30N 32°05' W 081°04'0 0.0
2018-Feb-14 08:00N 32°05' W 081°04'0 0.0
2018-Feb-14 07:30N 32°05' W 081°04'4 7.1
2018-Feb-14 07:00N 32°07' W 081°08'0 0.7
2018-Feb-14 06:30N 32°07' W 081°08'0 0.9
2018-Feb-14 06:00N 32°07' W 081°07'2 3.1
2018-Feb-14 05:29N 32°05' W 081°06'0 0.0
2018-Feb-14 04:59N 32°05' W 081°06'0 0.0
2018-Feb-14 04:29N 32°05' W 081°06'0 0.0
2018-Feb-14 03:59N 32°05' W 081°06'2 3.8
2018-Feb-14 03:27N 32°07' W 081°08'0 0.2
2018-Feb-14 03:00N 32°07' W 081°08'0 0.8
2018-Feb-14 02:28N 32°08' W 081°08'0 0.0
2018-Feb-14 01:59N 32°08' W 081°08'0 0.7
2018-Feb-14 01:30N 32°08' W 081°08'2 4.9
2018-Feb-14 01:00N 32°06' W 081°07'2 4.7
2018-Feb-14 00:30N 32°05' W 081°04'0 0.3
2018-Feb-14 00:00N 32°05' W 081°04'0 0.0
2018-Feb-13 23:30N 32°05' W 081°04'0 0.0
2018-Feb-13 23:00N 32°05' W 081°04'1 1.5
2018-Feb-13 22:30N 32°05' W 081°05'1 2.3
2018-Feb-13 21:59N 32°05' W 081°06'2 2.5
2018-Feb-13 21:19N 32°07' W 081°07'1 3.5
2018-Feb-13 21:00N 32°06' W 081°06'1 1.3
2018-Feb-13 20:31N 32°06' W 081°07'0 0.3
2018-Feb-13 20:00N 32°06' W 081°07'0 0.5
2018-Feb-13 19:30N 32°06' W 081°07'3 4.6
2018-Feb-13 18:56N 32°05' W 081°04'0 0.0
2018-Feb-13 18:21N 32°05' W 081°04'0 0.0
2018-Feb-13 17:57N 32°05' W 081°04'0 0.0
2018-Feb-13 17:27N 32°05' W 081°04'0 0.0
2018-Feb-13 16:57N 32°05' W 081°04'0 0.0
2018-Feb-13 16:27N 32°05' W 081°04'0 0.0
2018-Feb-13 15:50N 32°05' W 081°04'0 0.0
2018-Feb-13 15:26N 32°05' W 081°04'0 0.0
2018-Feb-13 14:56N 32°05' W 081°04'0 0.0
2018-Feb-13 14:26N 32°05' W 081°04'0 0.0
2018-Feb-13 13:56N 32°05' W 081°04'0 0.0
2018-Feb-13 13:27N 32°05' W 081°04'0 0.0
2018-Feb-13 12:56N 32°05' W 081°04'0 0.0
2018-Feb-13 12:27N 32°05' W 081°04'0 0.0
2018-Feb-13 11:57N 32°05' W 081°04'0 0.0
2018-Feb-13 11:26N 32°05' W 081°04'0 0.0
2018-Feb-13 10:56N 32°05' W 081°04'0 0.0
2018-Feb-13 10:26N 32°05' W 081°04'0 0.0
2018-Feb-13 09:56N 32°05' W 081°04'0 0.0
2018-Feb-13 09:26N 32°05' W 081°04'0 0.0
2018-Feb-13 08:57N 32°05' W 081°04'0 0.0
2018-Feb-13 08:26N 32°05' W 081°04'0 0.3
2018-Feb-13 08:01N 32°05' W 081°04'4 8.2
2018-Feb-13 07:31N 32°07' W 081°08'2 4.0
2018-Feb-13 06:57N 32°05' W 081°06'0 0.0
2018-Feb-13 06:27N 32°05' W 081°06'0 0.0
2018-Feb-13 05:57N 32°05' W 081°06'0 0.0
2018-Feb-13 05:27N 32°05' W 081°06'2 4.5
2018-Feb-13 04:58N 32°07' W 081°08'0 0.0
2018-Feb-13 04:27N 32°07' W 081°08'1 1.6
2018-Feb-13 04:01N 32°08' W 081°08'3 5.3
2018-Feb-13 03:31N 32°06' W 081°06'2 4.1
2018-Feb-13 02:59N 32°05' W 081°04'0 0.0
2018-Feb-13 02:29N 32°05' W 081°04'0 0.0
2018-Feb-13 01:59N 32°05' W 081°04'0 0.0
2018-Feb-13 01:29N 32°05' W 081°04'0 0.0
2018-Feb-13 00:59N 32°05' W 081°04'0 0.0
2018-Feb-13 00:29N 32°05' W 081°04'0 0.0
2018-Feb-12 23:59N 32°05' W 081°04'0 0.0
2018-Feb-12 23:29N 32°05' W 081°04'0 0.0
2018-Feb-12 22:53N 32°05' W 081°04'0 0.0
2018-Feb-12 22:29N 32°05' W 081°04'0 0.0
2018-Feb-12 21:59N 32°05' W 081°04'0 0.0
2018-Feb-12 21:29N 32°05' W 081°04'0 0.0
2018-Feb-12 20:59N 32°05' W 081°04'2 4.4
2018-Feb-12 20:30N 32°06' W 081°06'0 0.5
2018-Feb-12 19:58N 32°06' W 081°07'0 0.0
2018-Feb-12 19:28N 32°06' W 081°07'0 0.0
2018-Feb-12 18:58N 32°06' W 081°07'0 0.0
2018-Feb-12 18:28N 32°06' W 081°07'0 0.0
2018-Feb-12 17:58N 32°06' W 081°07'1 2.9
2018-Feb-12 17:30N 32°05' W 081°05'1 1.8
2018-Feb-12 16:51N 32°05' W 081°04'0 0.0
2018-Feb-12 16:21N 32°05' W 081°04'0 0.0
2018-Feb-12 15:57N 32°05' W 081°04'0 0.7
2018-Feb-12 15:18N 32°05' W 081°04'3 9.3
2018-Feb-12 15:00N 32°06' W 081°07'2 4.0
2018-Feb-12 14:28N 32°08' W 081°09'0 0.2
2018-Feb-12 13:55N 32°08' W 081°08'1 3.4
2018-Feb-12 13:30N 32°07' W 081°07'2 3.1
2018-Feb-12 12:58N 32°05' W 081°06'0 0.9
2018-Feb-12 12:30N 32°05' W 081°06'2 2.5
2018-Feb-12 11:54N 32°05' W 081°04'1 1.7
2018-Feb-12 11:30N 32°05' W 081°03'1 1.4
2018-Feb-12 11:00N 32°05' W 081°03'1 2.6
2018-Feb-12 10:30N 32°05' W 081°04'4 7.7
2018-Feb-12 10:01N 32°07' W 081°08'1 1.4
2018-Feb-12 09:30N 32°08' W 081°08'0 0.1
2018-Feb-12 09:01N 32°07' W 081°08'3 5.6
2018-Feb-12 08:31N 32°05' W 081°06'2 3.2
2018-Feb-12 07:57N 32°05' W 081°04'0 0.0
2018-Feb-12 07:27N 32°05' W 081°04'0 0.0
2018-Feb-12 06:51N 32°05' W 081°04'0 0.0
2018-Feb-12 06:27N 32°05' W 081°04'0 0.0
2018-Feb-12 05:57N 32°05' W 081°04'0 0.0
2018-Feb-12 05:27N 32°05' W 081°04'0 0.0
2018-Feb-12 04:57N 32°05' W 081°04'0 0.0
2018-Feb-12 04:27N 32°05' W 081°04'0 0.0
2018-Feb-12 03:51N 32°05' W 081°04'0 1.2
2018-Feb-12 03:30N 32°05' W 081°04'4 8.7
2018-Feb-12 03:01N 32°08' W 081°08'0 0.8
2018-Feb-12 02:29N 32°08' W 081°09'0 0.2
2018-Feb-12 02:00N 32°08' W 081°08'2 3.1
2018-Feb-12 01:30N 32°07' W 081°07'3 7.0
2018-Feb-12 01:00N 32°05' W 081°04'0 0.0
2018-Feb-11 00:08N 32°05' W 081°04'0 0.0
2018-Feb-11 00:00N 32°05' W 081°04'0 0.0
2018-Feb-10 23:27N 32°05' W 081°04'0 0.0
2018-Feb-10 22:57N 32°05' W 081°04'0 0.0
2018-Feb-10 22:27N 32°05' W 081°04'0 0.0
2018-Feb-10 21:45N 32°05' W 081°04'0 0.0
2018-Feb-10 21:27N 32°05' W 081°04'0 0.0
2018-Feb-10 20:57N 32°05' W 081°04'0 0.0
2018-Feb-10 20:27N 32°05' W 081°04'0 0.0
2018-Feb-10 19:51N 32°05' W 081°04'2 5.2
2018-Feb-10 19:30N 32°05' W 081°06'3 4.6
2018-Feb-10 18:56N 32°07' W 081°08'0 0.0
2018-Feb-10 18:26N 32°07' W 081°08'0 0.5
2018-Feb-10 18:00N 32°08' W 081°08'0 0.1
2018-Feb-10 17:25N 32°07' W 081°08'0 0.0
2018-Feb-10 17:00N 32°07' W 081°08'  

Dump ship's entire track history